Time,TemperatureF,DewpointF,PressureIn,WindDirection,WindDirectionDegrees,WindSpeedMPH,WindSpeedGustMPH,Humidity,HourlyPrecipIn,Conditions,Clouds,dailyrainin,SolarRadiationWatts/m^2,SoftwareType,DateUTC
2017-10-16 00:04:00,66.7,35.9,30.10,NW,308,2.7,4.0,32,0.00,CLR,,0.00,0.0,WeatherDisplay:10.37,2017-10-16 07:04:00,
2017-10-16 00:09:00,66.4,35.6,30.09,WNW,299,4.0,4.6,32,0.00,CLR,,0.00,0.0,WeatherDisplay:10.37,2017-10-16 07:09:00,
2017-10-16 00:14:00,66.3,35.5,30.09,WNW,299,2.0,3.5,32,0.00,CLR,,0.00,0.0,WeatherDisplay:10.37,2017-10-16 07:14:00,
2017-10-16 00:19:00,66.5,35.7,30.09,WNW,291,3.2,4.0,32,0.00,CLR,,0.00,0.0,WeatherDisplay:10.37,2017-10-16 07:19:00,
2017-10-16 00:24:00,66.8,36.0,30.09,WNW,284,3.5,4.0,32,0.00,CLR,,0.00,0.0,WeatherDisplay:10.37,2017-10-16 07:24:00,
2017-10-16 00:29:00,67.1,36.2,30.09,WNW,284,4.4,4.6,32,0.00,CLR,,0.00,0.0,WeatherDisplay:10.37,2017-10-16 07:29:00,
2017-10-16 00:34:00,67.2,36.3,30.09,WNW,284,4.1,5.0,32,0.00,CLR,,0.00,0.0,WeatherDisplay:10.37,2017-10-16 07:34:00,
2017-10-16 00:39:00,67.3,37.2,30.09,WNW,284,4.8,5.0,33,0.00,CLR,,0.00,0.0,WeatherDisplay:10.37,2017-10-16 07:39:00,
2017-10-16 00:44:00,67.4,37.3,30.09,West,266,3.4,4.0,33,0.00,CLR,,0.00,0.0,WeatherDisplay:10.37,2017-10-16 07:44:00,
2017-10-16 00:49:00,67.5,37.4,30.09,West,264,3.5,3.5,33,0.00,CLR,,0.00,0.0,WeatherDisplay:10.37,2017-10-16 07:49:00,
2017-10-16 00:54:00,67.7,36.0,30.09,WSW,257,5.1,5.8,31,0.00,CLR,,0.00,0.0,WeatherDisplay:10.37,2017-10-16 07:54:00,
2017-10-16 00:59:00,67.8,35.2,30.09,West,260,3.9,4.6,30,0.00,CLR,,0.00,0.0,WeatherDisplay:10.37,2017-10-16 07:59:00,
2017-10-16 01:04:00,67.9,37.7,30.09,West,268,4.7,6.9,33,0.00,CLR,,0.00,0.0,WeatherDisplay:10.37,2017-10-16 08:04:00,
2017-10-16 01:09:00,68.1,37.9,30.09,West,264,3.9,6.9,33,0.00,CLR,,0.00,0.0,WeatherDisplay:10.37,2017-10-16 08:09:00,
2017-10-16 01:14:00,68.2,38.0,30.09,West,272,4.0,4.6,33,0.00,CLR,,0.00,0.0,WeatherDisplay:10.37,2017-10-16 08:14:00,
2017-10-16 01:19:00,68.2,38.0,30.09,WNW,282,4.6,5.0,33,0.00,CLR,,0.00,0.0,WeatherDisplay:10.37,2017-10-16 08:19:00,
2017-10-16 01:24:00,68.2,38.0,30.09,West,281,4.1,6.9,33,0.00,CLR,,0.00,0.0,WeatherDisplay:10.37,2017-10-16 08:24:00,
2017-10-16 01:29:00,68.1,37.9,30.09,West,260,3.1,5.8,33,0.00,CLR,,0.00,0.0,WeatherDisplay:10.37,2017-10-16 08:29:00,
2017-10-16 01:34:00,67.9,38.5,30.09,West,259,2.9,3.5,34,0.00,CLR,,0.00,0.0,WeatherDisplay:10.37,2017-10-16 08:34:00,
2017-10-16 01:39:00,67.7,38.3,30.09,WSW,258,1.1,3.5,34,0.00,CLR,,0.00,0.0,WeatherDisplay:10.37,2017-10-16 08:39:00,
2017-10-16 01:44:00,67.7,38.3,30.10,West,259,2.2,3.5,34,0.00,CLR,,0.00,0.0,WeatherDisplay:10.37,2017-10-16 08:44:00,
2017-10-16 01:49:00,67.9,37.7,30.10,West,259,2.4,3.5,33,0.00,CLR,,0.00,0.0,WeatherDisplay:10.37,2017-10-16 08:49:00,
2017-10-16 01:54:00,67.8,36.8,30.10,West,260,0.0,1.0,32,0.00,CLR,,0.00,0.0,WeatherDisplay:10.37,2017-10-16 08:54:00,
2017-10-16 01:59:00,67.7,36.8,30.10,WSW,257,2.7,5.0,32,0.00,CLR,,0.00,0.0,WeatherDisplay:10.37,2017-10-16 08:59:00,
2017-10-16 02:04:00,67.6,36.7,30.09,WSW,238,2.5,4.6,32,0.00,CLR,,0.00,0.0,WeatherDisplay:10.37,2017-10-16 09:04:00,
2017-10-16 02:09:00,67.4,36.5,30.09,WSW,247,2.3,5.8,32,0.00,CLR,,0.00,0.0,WeatherDisplay:10.37,2017-10-16 09:09:00,
2017-10-16 02:14:00,67.4,36.5,30.09,WSW,248,4.1,5.0,32,0.00,CLR,,0.00,0.0,WeatherDisplay:10.37,2017-10-16 09:14:00,
2017-10-16 02:19:00,67.6,36.7,30.09,WSW,252,5.5,7.0,32,0.00,CLR,,0.00,0.0,WeatherDisplay:10.37,2017-10-16 09:19:00,
2017-10-16 02:24:00,67.9,36.9,30.09,West,259,5.6,6.9,32,0.00,CLR,,0.00,0.0,WeatherDisplay:10.37,2017-10-16 09:24:00,
2017-10-16 02:29:00,68.1,36.3,30.09,WSW,251,4.9,6.9,31,0.00,CLR,,0.00,0.0,WeatherDisplay:10.37,2017-10-16 09:29:00,
2017-10-16 02:34:00,68.2,36.4,30.09,West,260,4.9,6.9,31,0.00,CLR,,0.00,0.0,WeatherDisplay:10.37,2017-10-16 09:34:00,
2017-10-16 02:39:00,68.4,35.7,30.09,WSW,253,4.8,7.0,30,0.00,CLR,,0.00,0.0,WeatherDisplay:10.37,2017-10-16 09:39:00,
2017-10-16 02:44:00,68.4,35.7,30.09,West,267,6.2,6.9,30,0.00,CLR,,0.00,0.0,WeatherDisplay:10.37,2017-10-16 09:44:00,
2017-10-16 02:49:00,68.4,35.7,30.09,West,266,5.9,8.1,30,0.00,CLR,,0.00,0.0,WeatherDisplay:10.37,2017-10-16 09:49:00,
2017-10-16 02:54:00,68.4,35.7,30.09,WNW,291,8.1,9.2,30,0.00,CLR,,0.00,0.0,WeatherDisplay:10.37,2017-10-16 09:54:00,
2017-10-16 02:59:00,68.4,35.7,30.09,WNW,294,6.2,9.2,30,0.00,CLR,,0.00,0.0,WeatherDisplay:10.37,2017-10-16 09:59:00,
2017-10-16 03:04:00,68.3,35.6,30.09,West,277,6.0,8.1,30,0.00,CLR,,0.00,0.0,WeatherDisplay:10.37,2017-10-16 10:04:00,
2017-10-16 03:09:00,68.4,35.7,30.09,West,259,6.8,9.2,30,0.00,CLR,,0.00,0.0,WeatherDisplay:10.37,2017-10-16 10:09:00,
2017-10-16 03:14:00,68.6,35.9,30.09,West,270,7.6,8.1,30,0.00,CLR,,0.00,0.0,WeatherDisplay:10.37,2017-10-16 10:14:00,
2017-10-16 03:20:00,68.7,35.1,30.09,WSW,253,5.7,9.2,29,0.00,CLR,,0.00,0.0,WeatherDisplay:10.37,2017-10-16 10:20:00,
2017-10-16 03:25:00,68.8,35.2,30.08,WSW,241,5.8,8.1,29,0.00,CLR,,0.00,0.0,WeatherDisplay:10.37,2017-10-16 10:25:00,
2017-10-16 03:30:00,68.8,35.2,30.08,West,270,6.3,8.1,29,0.00,CLR,,0.00,0.0,WeatherDisplay:10.37,2017-10-16 10:30:00,
2017-10-16 03:35:00,68.8,35.2,30.08,WSW,249,6.6,7.0,29,0.00,CLR,,0.00,0.0,WeatherDisplay:10.37,2017-10-16 10:35:00,
2017-10-16 03:40:00,68.7,35.1,30.08,West,262,5.4,6.0,29,0.00,CLR,,0.00,0.0,WeatherDisplay:10.37,2017-10-16 10:40:00,
2017-10-16 03:45:00,68.6,35.1,30.08,West,262,5.5,8.1,29,0.00,CLR,,0.00,0.0,WeatherDisplay:10.37,2017-10-16 10:45:00,
2017-10-16 03:50:00,68.5,35.0,30.08,West,262,6.5,8.1,29,0.00,CLR,,0.00,0.0,WeatherDisplay:10.37,2017-10-16 10:50:00,
2017-10-16 03:55:00,68.4,34.9,30.08,West,266,6.0,8.0,29,0.00,CLR,,0.00,0.0,WeatherDisplay:10.37,2017-10-16 10:55:00,
2017-10-16 04:00:00,68.2,34.7,30.08,West,274,5.1,6.9,29,0.00,CLR,,0.00,0.0,WeatherDisplay:10.37,2017-10-16 11:00:00,
2017-10-16 04:05:00,68.0,34.5,30.08,West,276,4.6,5.0,29,0.00,CLR,,0.00,0.0,WeatherDisplay:10.37,2017-10-16 11:05:00,
2017-10-16 04:10:00,67.9,34.4,30.08,WSW,255,5.1,6.9,29,0.00,CLR,,0.00,0.0,WeatherDisplay:10.37,2017-10-16 11:10:00,
2017-10-16 04:15:00,67.6,34.2,30.08,West,268,7.8,9.2,29,0.00,CLR,,0.00,0.0,WeatherDisplay:10.37,2017-10-16 11:15:00,
2017-10-16 04:20:00,67.3,34.8,30.08,West,276,6.3,8.0,30,0.00,CLR,,0.00,0.0,WeatherDisplay:10.37,2017-10-16 11:20:00,
2017-10-16 04:25:00,67.0,34.5,30.08,West,270,6.9,8.1,30,0.00,CLR,,0.00,0.0,WeatherDisplay:10.37,2017-10-16 11:25:00,
2017-10-16 04:30:00,66.7,35.1,30.08,WNW,293,6.2,6.9,31,0.00,CLR,,0.00,0.0,WeatherDisplay:10.37,2017-10-16 11:30:00,
2017-10-16 04:35:00,66.3,35.5,30.08,WNW,297,5.1,5.8,32,0.00,CLR,,0.00,0.0,WeatherDisplay:10.37,2017-10-16 11:35:00,
2017-10-16 04:40:00,65.9,36.0,30.08,WNW,297,4.2,4.6,33,0.00,CLR,,0.00,0.0,WeatherDisplay:10.37,2017-10-16 11:40:00,
2017-10-16 04:45:00,65.5,35.6,30.08,WNW,291,4.9,6.9,33,0.00,CLR,,0.00,0.0,WeatherDisplay:10.37,2017-10-16 11:45:00,
2017-10-16 04:50:00,65.2,36.1,30.08,West,281,4.7,5.0,34,0.00,CLR,,0.00,0.0,WeatherDisplay:10.37,2017-10-16 11:50:00,
2017-10-16 04:55:00,64.8,35.8,30.08,WNW,282,4.8,5.0,34,0.00,CLR,,0.00,0.0,WeatherDisplay:10.37,2017-10-16 11:55:00,
2017-10-16 05:00:00,64.7,36.4,30.08,West,259,4.4,5.8,35,0.00,CLR,,0.00,0.0,WeatherDisplay:10.37,2017-10-16 12:00:00,
2017-10-16 05:05:00,64.6,35.6,30.08,WSW,255,3.7,6.0,34,0.00,CLR,,0.00,0.0,WeatherDisplay:10.37,2017-10-16 12:05:00,
2017-10-16 05:10:00,64.6,34.8,30.08,West,259,3.5,3.5,33,0.00,CLR,,0.00,0.0,WeatherDisplay:10.37,2017-10-16 12:10:00,
2017-10-16 05:15:00,64.6,34.8,30.08,West,261,5.2,6.9,33,0.00,CLR,,0.00,0.0,WeatherDisplay:10.37,2017-10-16 12:15:00,
2017-10-16 05:20:00,64.7,34.9,30.08,West,272,6.3,6.9,33,0.00,CLR,,0.00,0.0,WeatherDisplay:10.37,2017-10-16 12:20:00,
2017-10-16 05:25:00,64.9,34.3,30.08,WSW,237,4.1,6.9,32,0.00,CLR,,0.00,0.0,WeatherDisplay:10.37,2017-10-16 12:25:00,
2017-10-16 05:30:00,64.9,34.3,30.08,WSW,247,4.6,7.0,32,0.00,CLR,,0.00,0.0,WeatherDisplay:10.37,2017-10-16 12:30:00,
2017-10-16 05:35:00,64.9,34.3,30.09,WSW,256,5.0,6.9,32,0.00,CLR,,0.00,0.0,WeatherDisplay:10.37,2017-10-16 12:35:00,
2017-10-16 05:40:00,64.9,34.3,30.08,SW,220,5.7,6.9,32,0.00,CLR,,0.00,0.0,WeatherDisplay:10.37,2017-10-16 12:40:00,
2017-10-16 05:45:00,64.9,34.3,30.09,SW,219,3.3,4.6,32,0.00,CLR,,0.00,0.0,WeatherDisplay:10.37,2017-10-16 12:45:00,
2017-10-16 05:50:00,64.9,34.3,30.09,WSW,253,5.8,7.0,32,0.00,CLR,,0.00,0.0,WeatherDisplay:10.37,2017-10-16 12:50:00,
2017-10-16 05:55:00,65.1,34.5,30.09,WSW,245,5.2,8.1,32,0.00,CLR,,0.00,0.0,WeatherDisplay:10.37,2017-10-16 12:55:00,
2017-10-16 06:00:00,65.2,34.6,30.09,WSW,247,4.9,8.1,32,0.00,CLR,,0.00,0.0,WeatherDisplay:10.37,2017-10-16 13:00:00,
2017-10-16 06:05:00,65.3,34.7,30.09,West,262,5.4,6.9,32,0.00,CLR,,0.00,0.0,WeatherDisplay:10.37,2017-10-16 13:05:00,
2017-10-16 06:10:00,65.5,34.8,30.09,WSW,237,3.9,5.8,32,0.00,CLR,,0.00,0.0,WeatherDisplay:10.37,2017-10-16 13:10:00,
2017-10-16 06:15:00,65.4,34.0,30.09,NNW,328,3.1,4.6,31,0.00,CLR,,0.00,0.0,WeatherDisplay:10.37,2017-10-16 13:15:00,
2017-10-16 06:20:00,65.3,33.9,30.09,WSW,257,2.3,6.9,31,0.00,CLR,,0.00,0.0,WeatherDisplay:10.37,2017-10-16 13:20:00,
2017-10-16 06:25:00,65.2,33.0,30.09,West,276,3.1,4.0,30,0.00,CLR,,0.00,0.0,WeatherDisplay:10.37,2017-10-16 13:25:00,
2017-10-16 06:30:00,65.0,33.6,30.09,West,262,2.2,4.6,31,0.00,CLR,,0.00,0.0,WeatherDisplay:10.37,2017-10-16 13:30:00,
2017-10-16 06:35:00,64.9,32.7,30.09,West,272,5.0,7.0,30,0.00,CLR,CLR,0.00,0.0,WeatherDisplay:10.37,2017-10-16 13:35:00,
2017-10-16 06:40:00,64.8,32.6,30.09,West,276,3.0,7.0,30,0.00,CLR,CLR,0.00,0.0,WeatherDisplay:10.37,2017-10-16 13:40:00,
2017-10-16 06:45:00,64.9,32.7,30.09,WSW,258,2.8,3.5,30,0.00,CLR,,0.00,0.0,WeatherDisplay:10.37,2017-10-16 13:45:00,
2017-10-16 06:50:00,64.9,33.5,30.09,West,267,7.0,9.0,31,0.00,CLR,CLR,0.00,0.0,WeatherDisplay:10.37,2017-10-16 13:50:00,
2017-10-16 06:55:00,65.0,33.6,30.10,West,260,3.5,5.0,31,0.00,CLR,,0.00,0.0,WeatherDisplay:10.37,2017-10-16 13:55:00,
2017-10-16 07:00:00,65.0,33.6,30.10,West,259,6.7,8.1,31,0.00,CLR,,0.00,0.0,WeatherDisplay:10.37,2017-10-16 14:00:00,
2017-10-16 07:05:00,64.9,33.5,30.09,West,272,7.3,8.1,31,0.00,CLR,,0.00,0.0,WeatherDisplay:10.37,2017-10-16 14:05:00,
2017-10-16 07:10:00,65.0,33.6,30.10,West,278,6.2,9.0,31,0.00,CLR,,0.00,0.0,WeatherDisplay:10.37,2017-10-16 14:10:00,
2017-10-16 07:15:00,65.0,33.6,30.10,WNW,297,4.2,6.9,31,0.00,CLR,,0.00,5.0,WeatherDisplay:10.37,2017-10-16 14:15:00,
2017-10-16 07:20:00,64.7,33.3,30.10,WNW,285,3.0,4.0,31,0.00,CLR,,0.00,5.0,WeatherDisplay:10.37,2017-10-16 14:20:00,
2017-10-16 07:25:00,64.5,33.2,30.10,WSW,257,4.1,5.8,31,0.00,CLR,,0.00,9.0,WeatherDisplay:10.37,2017-10-16 14:25:00,
2017-10-16 07:30:00,64.3,33.0,30.10,WSW,251,6.1,9.0,31,0.00,CLR,,0.00,14.0,WeatherDisplay:10.37,2017-10-16 14:30:00,
2017-10-16 07:35:00,64.4,33.1,30.10,WSW,256,6.6,8.1,31,0.00,CLR,,0.00,18.0,WeatherDisplay:10.37,2017-10-16 14:35:00,
2017-10-16 07:40:00,64.5,33.2,30.10,West,266,4.1,7.0,31,0.00,CLR,,0.00,21.0,WeatherDisplay:10.37,2017-10-16 14:40:00,
2017-10-16 07:45:00,64.7,33.3,30.10,WNW,282,4.3,4.6,31,0.00,CLR,,0.00,26.0,WeatherDisplay:10.37,2017-10-16 14:45:00,
2017-10-16 07:50:00,64.7,32.5,30.10,West,272,0.7,2.3,30,0.00,CLR,,0.00,35.0,WeatherDisplay:10.37,2017-10-16 14:50:00,
2017-10-16 07:55:00,64.7,33.3,30.11,WNW,282,2.2,3.5,31,0.00,CLR,,0.00,40.0,WeatherDisplay:10.37,2017-10-16 14:55:00,
2017-10-16 08:00:00,64.7,33.3,30.11,WNW,303,1.7,3.5,31,0.00,CLR,,0.00,44.0,WeatherDisplay:10.37,2017-10-16 15:00:00,
2017-10-16 08:05:00,64.9,33.5,30.11,WNW,291,1.1,2.3,31,0.00,CLR,,0.00,67.0,WeatherDisplay:10.37,2017-10-16 15:05:00,
2017-10-16 08:10:00,65.1,33.7,30.11,WNW,291,1.6,3.5,31,0.00,CLR,,0.00,91.0,WeatherDisplay:10.37,2017-10-16 15:10:00,
2017-10-16 08:15:00,65.5,33.2,30.11,NNW,328,3.8,5.8,30,0.00,CLR,,0.00,102.0,WeatherDisplay:10.37,2017-10-16 15:15:00,
2017-10-16 08:20:00,65.7,34.2,30.11,West,276,2.9,4.6,31,0.00,CLR,,0.00,77.0,WeatherDisplay:10.37,2017-10-16 15:20:00,
2017-10-16 08:25:00,65.8,33.5,30.12,WSW,257,0.1,1.2,30,0.00,CLR,,0.00,114.0,WeatherDisplay:10.37,2017-10-16 15:25:00,
2017-10-16 08:30:00,66.0,34.5,30.12,WNW,282,3.0,5.0,31,0.00,CLR,,0.00,178.0,WeatherDisplay:10.37,2017-10-16 15:30:00,
2017-10-16 08:35:00,66.3,33.9,30.12,WNW,289,3.9,7.0,30,0.00,CLR,,0.00,192.0,WeatherDisplay:10.37,2017-10-16 15:35:00,
2017-10-16 08:40:00,66.8,34.3,30.12,WNW,290,2.5,3.5,30,0.00,CLR,,0.00,209.0,WeatherDisplay:10.37,2017-10-16 15:40:00,
2017-10-16 08:45:00,67.2,33.8,30.12,WNW,288,3.5,3.5,29,0.00,CLR,,0.00,220.0,WeatherDisplay:10.37,2017-10-16 15:45:00,
2017-10-16 08:50:00,67.5,34.1,30.12,WNW,290,3.3,4.6,29,0.00,CLR,,0.00,237.0,WeatherDisplay:10.37,2017-10-16 15:50:00,
2017-10-16 08:55:00,68.1,34.6,30.13,West,269,2.9,3.5,29,0.00,CLR,,0.00,213.0,WeatherDisplay:10.37,2017-10-16 15:55:00,
2017-10-16 09:00:00,68.6,34.2,30.13,West,274,3.3,6.9,28,0.00,CLR,,0.00,271.0,WeatherDisplay:10.37,2017-10-16 16:00:00,
2017-10-16 09:05:00,68.9,34.4,30.13,West,274,4.2,5.0,28,0.00,CLR,,0.00,283.0,WeatherDisplay:10.37,2017-10-16 16:05:00,
2017-10-16 09:10:00,69.1,33.7,30.13,WNW,282,3.8,5.8,27,0.00,CLR,,0.00,299.0,WeatherDisplay:10.37,2017-10-16 16:10:00,
2017-10-16 09:15:00,69.5,34.0,30.13,West,280,2.2,3.5,27,0.00,CLR,,0.00,315.0,WeatherDisplay:10.37,2017-10-16 16:15:00,
2017-10-16 09:20:00,70.2,34.6,30.13,WNW,291,3.0,4.0,27,0.00,CLR,,0.00,330.0,WeatherDisplay:10.37,2017-10-16 16:20:00,
2017-10-16 09:25:00,70.8,34.2,30.13,West,278,1.7,4.0,26,0.00,CLR,,0.00,336.0,WeatherDisplay:10.37,2017-10-16 16:25:00,
2017-10-16 09:30:00,71.4,34.7,30.13,West,273,5.4,6.9,26,0.00,CLR,,0.00,332.0,WeatherDisplay:10.37,2017-10-16 16:30:00,
2017-10-16 09:35:00,71.9,35.1,30.13,NNW,330,1.9,3.5,26,0.00,CLR,,0.00,348.0,WeatherDisplay:10.37,2017-10-16 16:35:00,
2017-10-16 09:40:00,72.6,34.7,30.13,NW,307,2.7,3.5,25,0.00,CLR,,0.00,387.0,WeatherDisplay:10.37,2017-10-16 16:40:00,
2017-10-16 09:45:00,73.2,35.2,30.13,NNW,333,2.2,3.5,25,0.00,CLR,,0.00,369.0,WeatherDisplay:10.37,2017-10-16 16:45:00,
2017-10-16 09:50:00,73.4,35.4,30.13,WNW,302,3.2,5.0,25,0.00,CLR,,0.00,410.0,WeatherDisplay:10.37,2017-10-16 16:50:00,
2017-10-16 09:55:00,74.0,34.9,30.13,NNW,336,3.8,6.9,24,0.00,CLR,,0.00,388.0,WeatherDisplay:10.37,2017-10-16 16:55:00,
2017-10-16 10:00:00,74.4,35.2,30.13,WNW,297,2.1,5.8,24,0.00,CLR,,0.00,461.0,WeatherDisplay:10.37,2017-10-16 17:00:00,
2017-10-16 10:05:00,74.7,35.5,30.14,NW,326,2.2,5.0,24,0.00,CLR,,0.00,309.0,WeatherDisplay:10.37,2017-10-16 17:05:00,
2017-10-16 10:10:00,74.8,35.6,30.14,WNW,286,2.6,3.5,24,0.00,CLR,,0.00,462.0,WeatherDisplay:10.37,2017-10-16 17:10:00,
2017-10-16 10:15:00,75.1,35.8,30.13,WNW,289,1.2,3.5,24,0.00,CLR,,0.00,489.0,WeatherDisplay:10.37,2017-10-16 17:15:00,
2017-10-16 10:20:00,75.5,36.2,30.13,NW,319,3.0,5.8,24,0.00,CLR,,0.00,524.0,WeatherDisplay:10.37,2017-10-16 17:20:00,
2017-10-16 10:25:00,75.7,35.3,30.13,WNW,287,3.6,4.6,23,0.00,CLR,,0.00,338.0,WeatherDisplay:10.37,2017-10-16 17:25:00,
2017-10-16 10:30:00,75.7,36.3,30.13,WNW,290,5.2,6.9,24,0.00,CLR,,0.00,308.0,WeatherDisplay:10.37,2017-10-16 17:30:00,
2017-10-16 10:35:00,75.9,36.5,30.13,WNW,301,4.7,5.8,24,0.00,CLR,,0.00,629.0,WeatherDisplay:10.37,2017-10-16 17:35:00,
2017-10-16 10:40:00,76.1,35.6,30.13,WNW,291,5.6,6.9,23,0.00,CLR,,0.00,643.0,WeatherDisplay:10.37,2017-10-16 17:40:00,
2017-10-16 10:45:00,76.1,35.6,30.13,WNW,291,4.7,7.0,23,0.00,CLR,,0.00,598.0,WeatherDisplay:10.37,2017-10-16 17:45:00,
2017-10-16 10:50:00,76.5,35.9,30.13,West,277,5.0,7.0,23,0.00,CLR,,0.00,680.0,WeatherDisplay:10.37,2017-10-16 17:50:00,
2017-10-16 10:55:00,77.3,35.5,30.13,WNW,303,5.5,6.9,22,0.00,CLR,,0.00,649.0,WeatherDisplay:10.37,2017-10-16 17:55:00,
2017-10-16 11:00:00,77.9,36.0,30.12,WNW,293,3.2,6.0,22,0.00,CLR,,0.00,610.0,WeatherDisplay:10.37,2017-10-16 18:00:00,
2017-10-16 11:05:00,78.4,36.4,30.12,NW,310,3.5,5.8,22,0.00,CLR,,0.00,708.0,WeatherDisplay:10.37,2017-10-16 18:05:00,
2017-10-16 11:10:00,79.0,36.9,30.12,WNW,303,2.9,5.0,22,0.00,CLR,,0.00,708.0,WeatherDisplay:10.37,2017-10-16 18:10:00,
2017-10-16 11:15:00,79.9,37.6,30.12,NW,316,3.0,4.6,22,0.00,CLR,,0.00,721.0,WeatherDisplay:10.37,2017-10-16 18:15:00,
2017-10-16 11:20:00,80.4,36.9,30.12,NNW,343,3.6,5.8,21,0.00,CLR,,0.00,599.0,WeatherDisplay:10.37,2017-10-16 18:20:00,
2017-10-16 11:25:00,80.7,37.1,30.12,West,276,2.5,4.6,21,0.00,CLR,,0.00,649.0,WeatherDisplay:10.37,2017-10-16 18:25:00,
2017-10-16 11:30:00,81.1,37.5,30.12,NW,323,5.0,6.9,21,0.00,CLR,,0.00,707.0,WeatherDisplay:10.37,2017-10-16 18:30:00,
2017-10-16 11:35:00,81.4,37.7,30.11,NW,313,2.5,4.6,21,0.00,CLR,,0.00,719.0,WeatherDisplay:10.37,2017-10-16 18:35:00,
2017-10-16 11:40:00,81.8,36.8,30.11,NW,320,3.8,5.0,20,0.00,CLR,,0.00,592.0,WeatherDisplay:10.37,2017-10-16 18:40:00,
2017-10-16 11:45:00,82.0,37.0,30.11,NW,319,1.5,3.5,20,0.00,CLR,,0.00,459.0,WeatherDisplay:10.37,2017-10-16 18:45:00,
2017-10-16 11:50:00,82.2,37.1,30.11,NW,319,2.7,3.5,20,0.00,CLR,,0.00,439.0,WeatherDisplay:10.37,2017-10-16 18:50:00,
2017-10-16 11:55:00,82.2,38.4,30.11,NNW,333,3.6,5.8,21,0.00,CLR,,0.00,501.0,WeatherDisplay:10.37,2017-10-16 18:55:00,
2017-10-16 12:00:00,82.2,37.1,30.11,NW,313,2.3,5.0,20,0.00,CLR,,0.00,534.0,WeatherDisplay:10.37,2017-10-16 19:00:00,
2017-10-16 12:05:00,82.1,38.3,30.11,NW,317,0.8,2.3,21,0.00,CLR,,0.00,457.0,WeatherDisplay:10.37,2017-10-16 19:05:00,
2017-10-16 12:10:00,82.1,38.3,30.10,North,3,3.2,4.6,21,0.00,CLR,,0.00,573.0,WeatherDisplay:10.37,2017-10-16 19:10:00,
2017-10-16 12:15:00,82.2,37.1,30.10,NNW,332,1.9,3.5,20,0.00,CLR,,0.00,654.0,WeatherDisplay:10.37,2017-10-16 19:15:00,
2017-10-16 12:20:00,82.5,38.6,30.10,NW,320,1.7,3.5,21,0.00,CLR,,0.00,775.0,WeatherDisplay:10.37,2017-10-16 19:20:00,
2017-10-16 12:25:00,83.1,37.9,30.10,NNW,338,1.5,3.5,20,0.00,CLR,,0.00,809.0,WeatherDisplay:10.37,2017-10-16 19:25:00,
2017-10-16 12:30:00,83.6,38.3,30.10,North,10,2.7,4.6,20,0.00,CLR,,0.00,786.0,WeatherDisplay:10.37,2017-10-16 19:30:00,
2017-10-16 12:35:00,84.0,37.3,30.10,NNW,347,2.2,4.0,19,0.00,CLR,,0.00,766.0,WeatherDisplay:10.37,2017-10-16 19:35:00,
2017-10-16 12:40:00,84.6,37.8,30.09,NW,326,2.2,3.5,19,0.00,CLR,,0.00,747.0,WeatherDisplay:10.37,2017-10-16 19:40:00,
2017-10-16 12:45:00,84.7,36.5,30.09,NNW,342,1.5,3.5,18,0.00,CLR,,0.00,729.0,WeatherDisplay:10.37,2017-10-16 19:45:00,
2017-10-16 12:50:00,85.0,36.7,30.09,NNE,22,2.2,3.5,18,0.00,CLR,,0.00,729.0,WeatherDisplay:10.37,2017-10-16 19:50:00,
2017-10-16 12:55:00,85.4,38.4,30.08,NW,324,1.5,3.5,19,0.00,CLR,,0.00,728.0,WeatherDisplay:10.37,2017-10-16 19:55:00,
2017-10-16 13:00:00,85.9,37.5,30.08,NNE,15,2.0,5.0,18,0.00,CLR,,0.00,737.0,WeatherDisplay:10.37,2017-10-16 20:00:00,
2017-10-16 13:05:00,86.4,37.9,30.08,North,351,2.1,3.5,18,0.00,CLR,,0.00,740.0,WeatherDisplay:10.37,2017-10-16 20:05:00,
2017-10-16 13:10:00,86.5,36.5,30.08,NNW,331,2.5,3.5,17,0.00,CLR,,0.00,744.0,WeatherDisplay:10.37,2017-10-16 20:10:00,
2017-10-16 13:15:00,86.4,37.9,30.07,NNW,331,1.3,3.5,18,0.00,CLR,,0.00,740.0,WeatherDisplay:10.37,2017-10-16 20:15:00,
2017-10-16 13:20:00,86.9,38.3,30.07,NNE,20,4.4,4.6,18,0.00,CLR,,0.00,733.0,WeatherDisplay:10.37,2017-10-16 20:20:00,
2017-10-16 13:25:00,87.3,38.6,30.07,NNW,348,3.9,4.6,18,0.00,CLR,,0.00,735.0,WeatherDisplay:10.37,2017-10-16 20:25:00,
2017-10-16 13:30:00,87.5,37.3,30.07,NNE,19,2.2,3.5,17,0.00,CLR,,0.00,724.0,WeatherDisplay:10.37,2017-10-16 20:30:00,
2017-10-16 13:35:00,87.6,38.8,30.07,NNE,29,1.9,4.0,18,0.00,CLR,,0.00,698.0,WeatherDisplay:10.37,2017-10-16 20:35:00,
2017-10-16 13:40:00,87.8,37.6,30.06,NE,34,3.1,4.6,17,0.00,CLR,,0.00,661.0,WeatherDisplay:10.37,2017-10-16 20:40:00,
2017-10-16 13:45:00,87.9,37.6,30.06,NNE,26,2.2,4.6,17,0.00,CLR,,0.00,438.0,WeatherDisplay:10.37,2017-10-16 20:45:00,
2017-10-16 13:50:00,87.8,37.6,30.06,NNE,23,1.1,3.5,17,0.00,CLR,,0.00,279.0,WeatherDisplay:10.37,2017-10-16 20:50:00,
2017-10-16 13:55:00,87.5,37.3,30.06,NNW,330,1.1,3.5,17,0.00,CLR,,0.00,543.0,WeatherDisplay:10.37,2017-10-16 20:55:00,
2017-10-16 14:00:00,87.3,38.6,30.05,NNW,328,2.6,3.5,18,0.00,CLR,,0.00,603.0,WeatherDisplay:10.37,2017-10-16 21:00:00,
2017-10-16 14:05:00,87.3,38.6,30.05,NW,324,1.4,3.5,18,0.00,CLR,,0.00,696.0,WeatherDisplay:10.37,2017-10-16 21:05:00,
2017-10-16 14:10:00,87.4,38.7,30.05,NNW,333,2.0,4.6,18,0.00,CLR,,0.00,680.0,WeatherDisplay:10.37,2017-10-16 21:10:00,
2017-10-16 14:15:00,87.4,37.2,30.05,NW,324,1.9,3.5,17,0.00,CLR,,0.00,668.0,WeatherDisplay:10.37,2017-10-16 21:15:00,
2017-10-16 14:20:00,87.5,37.3,30.04,NE,43,3.1,4.6,17,0.00,CLR,,0.00,654.0,WeatherDisplay:10.37,2017-10-16 21:20:00,
2017-10-16 14:25:00,87.7,37.5,30.04,NNW,347,1.1,3.5,17,0.00,CLR,,0.00,629.0,WeatherDisplay:10.37,2017-10-16 21:25:00,
2017-10-16 14:30:00,88.1,37.8,30.04,NNW,333,1.7,3.5,17,0.00,CLR,,0.00,615.0,WeatherDisplay:10.37,2017-10-16 21:30:00,
2017-10-16 14:35:00,88.3,38.0,30.04,NNW,336,0.5,2.0,17,0.00,CLR,,0.00,605.0,WeatherDisplay:10.37,2017-10-16 21:35:00,
2017-10-16 14:40:00,88.6,36.7,30.04,NNW,328,1.3,2.3,16,0.00,CLR,,0.00,592.0,WeatherDisplay:10.37,2017-10-16 21:40:00,
2017-10-16 14:45:00,88.7,36.7,30.04,NW,315,0.5,3.0,16,0.00,CLR,,0.00,589.0,WeatherDisplay:10.37,2017-10-16 21:45:00,
2017-10-16 14:50:00,88.9,36.9,30.04,NE,53,2.0,3.5,16,0.00,CLR,,0.00,584.0,WeatherDisplay:10.37,2017-10-16 21:50:00,
2017-10-16 14:55:00,88.9,36.9,30.04,NE,37,0.5,1.2,16,0.00,CLR,,0.00,577.0,WeatherDisplay:10.37,2017-10-16 21:55:00,
2017-10-16 15:00:00,88.8,35.2,30.04,NE,47,2.8,4.6,15,0.00,CLR,,0.00,555.0,WeatherDisplay:10.37,2017-10-16 22:00:00,
2017-10-16 15:05:00,88.3,34.8,30.04,East,87,2.1,3.5,15,0.00,CLR,,0.00,301.0,WeatherDisplay:10.37,2017-10-16 22:05:00,
2017-10-16 15:10:00,88.0,36.2,30.04,ENE,75,1.9,3.5,16,0.00,CLR,,0.00,487.0,WeatherDisplay:10.37,2017-10-16 22:10:00,
2017-10-16 15:15:00,87.9,34.5,30.03,ENE,78,3.0,3.5,15,0.00,CLR,,0.00,545.0,WeatherDisplay:10.37,2017-10-16 22:15:00,
2017-10-16 15:20:00,87.5,34.1,30.04,ENE,68,0.7,2.3,15,0.00,CLR,,0.00,531.0,WeatherDisplay:10.37,2017-10-16 22:20:00,
2017-10-16 15:25:00,87.5,34.1,30.04,ENE,57,2.1,3.5,15,0.00,CLR,,0.00,362.0,WeatherDisplay:10.37,2017-10-16 22:25:00,
2017-10-16 15:30:00,87.7,35.9,30.03,NE,38,2.0,3.5,16,0.00,CLR,,0.00,497.0,WeatherDisplay:10.37,2017-10-16 22:30:00,
2017-10-16 15:35:00,87.9,34.5,30.03,NNE,18,1.5,3.5,15,0.00,CLR,,0.00,411.0,WeatherDisplay:10.37,2017-10-16 22:35:00,
2017-10-16 15:40:00,87.9,34.5,30.03,East,80,2.6,3.5,15,0.00,CLR,,0.00,475.0,WeatherDisplay:10.37,2017-10-16 22:40:00,
2017-10-16 15:45:00,88.1,36.3,30.03,East,80,0.4,1.2,16,0.00,CLR,,0.00,466.0,WeatherDisplay:10.37,2017-10-16 22:45:00,
2017-10-16 15:50:00,88.3,36.4,30.03,NNW,339,1.4,2.3,16,0.00,CLR,,0.00,443.0,WeatherDisplay:10.37,2017-10-16 22:50:00,
2017-10-16 15:55:00,88.5,34.9,30.02,NNW,343,1.0,3.5,15,0.00,CLR,,0.00,424.0,WeatherDisplay:10.37,2017-10-16 22:55:00,
2017-10-16 16:00:00,88.8,33.4,30.02,NE,38,1.0,2.3,14,0.00,CLR,,0.00,403.0,WeatherDisplay:10.37,2017-10-16 23:00:00,
2017-10-16 16:05:00,88.9,31.7,30.03,NE,38,0.3,2.3,13,0.00,CLR,,0.00,387.0,WeatherDisplay:10.37,2017-10-16 23:05:00,